Time;durP1;ratioP1;P1;durP2;ratioP2;P2;SDS_P1;SDS_P2;PMS_P1;PMS_P2;Temp;Humidity;BMP_temperature;BMP_pressure;BME280_temperature;BME280_humidity;BME280_pressure;Samples;Min_cycle;Max_cycle;Signal;HPM_P1;HPM_P2
2022/03/06 00:02:19;;;;;;;2.50;0.70;;;;;;;10.62;52.28;101968.78;5001692;28;20057;-74
2022/03/06 00:04:45;;;;;;;5.95;0.75;;;;;;;10.75;53.89;101976.19;4995242;28;20026;-75
2022/03/06 00:07:11;;;;;;;6.03;0.93;;;;;;;10.77;52.61;101971.47;4995706;28;20453;-74
2022/03/06 00:09:37;;;;;;;3.80;1.02;;;;;;;10.67;53.35;101985.13;4996025;28;20108;-74
2022/03/06 00:12:04;;;;;;;5.45;0.82;;;;;;;10.60;52.89;101970.78;4995612;28;20030;-74
2022/03/06 00:14:30;;;;;;;3.58;0.93;;;;;;;10.52;53.19;101981.56;4996885;28;20038;-74
2022/03/06 00:16:56;;;;;;;4.97;1.10;;;;;;;10.62;52.45;101978.66;4994006;28;20034;-74
2022/03/06 00:19:22;;;;;;;3.35;1.08;;;;;;;10.60;54.29;101978.81;4994271;28;20041;-74
2022/03/06 00:21:49;;;;;;;4.72;0.95;;;;;;;10.69;54.36;101983.09;4996021;28;20109;-74
2022/03/06 00:24:15;;;;;;;12.38;1.92;;;;;;;10.70;56.29;101976.72;4995563;28;20044;-74
2022/03/06 00:26:41;;;;;;;4.13;1.13;;;;;;;10.75;55.00;101981.53;4995930;28;20026;-74
2022/03/06 00:29:07;;;;;;;5.93;1.10;;;;;;;10.77;57.09;101980.38;4991186;28;20137;-74
2022/03/06 00:31:33;;;;;;;5.75;1.30;;;;;;;10.76;56.92;101981.38;4991579;28;20048;-74
2022/03/06 00:34:00;;;;;;;4.15;1.10;;;;;;;10.85;55.49;101984.81;4995205;28;20026;-74
2022/03/06 00:36:26;;;;;;;3.55;0.95;;;;;;;10.86;55.39;101985.66;4993974;28;20425;-74
2022/03/06 00:38:52;;;;;;;8.07;2.30;;;;;;;10.84;56.18;101989.34;4995774;28;20060;-74
2022/03/06 00:41:18;;;;;;;6.07;1.75;;;;;;;10.84;55.56;101989.34;4996377;28;20030;-74
2022/03/06 00:43:44;;;;;;;6.65;1.20;;;;;;;10.71;54.95;101986.41;5005386;28;20069;-77
2022/03/06 00:46:10;;;;;;;4.55;1.45;;;;;;;10.68;55.69;102000.19;5003638;28;20515;-74
2022/03/06 00:48:36;;;;;;;11.70;1.40;;;;;;;10.58;57.07;101995.06;5005425;28;20026;-77
2022/03/06 00:51:03;;;;;;;6.78;1.40;;;;;;;10.53;56.70;101988.56;5004694;28;20034;-78
2022/03/06 00:53:29;;;;;;;7.50;1.50;;;;;;;10.42;57.19;101994.31;4998490;28;20022;-78
2022/03/06 00:55:55;;;;;;;4.57;1.58;;;;;;;10.33;58.67;101990.88;5000337;28;20022;-78
2022/03/06 00:58:21;;;;;;;6.72;1.60;;;;;;;10.29;58.10;102000.25;4993583;28;20536;-78
2022/03/06 01:00:48;;;;;;;8.82;1.45;;;;;;;10.16;58.62;102000.81;4999821;28;20093;-78
2022/03/06 01:03:19;;;;;;;8.00;1.20;;;;;;;10.09;58.24;102005.16;5003219;28;20023;-78
2022/03/06 01:05:46;;;;;;;8.98;1.95;;;;;;;9.91;59.28;102008.09;5013185;28;20139;-78
2022/03/06 01:08:13;;;;;;;9.70;1.67;;;;;;;9.83;60.91;102010.81;5001246;28;20124;-78
2022/03/06 01:10:41;;;;;;;10.02;2.38;;;;;;;9.69;60.63;102001.66;4998499;28;20045;-79
2022/03/06 01:13:09;;;;;;;9.23;2.58;;;;;;;9.58;62.24;102012.69;5011822;28;20037;-78
2022/03/06 01:15:36;;;;;;;10.57;1.95;;;;;;;9.57;62.69;102002.19;4995577;28;20449;-78
2022/03/06 01:18:06;;;;;;;8.30;2.15;;;;;;;9.51;62.96;101996.53;4996378;28;20419;-78
2022/03/06 01:20:33;;;;;;;11.82;2.47;;;;;;;9.41;63.74;101995.03;4994679;28;20364;-78
2022/03/06 01:22:59;;;;;;;13.93;2.95;;;;;;;9.33;64.36;102008.41;4995031;28;20457;-76
2022/03/06 01:25:25;;;;;;;8.55;2.00;;;;;;;9.24;64.91;102007.59;5015935;28;20721;-78
2022/03/06 01:27:52;;;;;;;10.85;2.47;;;;;;;9.09;66.16;102006.59;4995957;28;20066;-78
2022/03/06 01:30:22;;;;;;;13.07;2.80;;;;;;;9.03;66.79;102013.44;5010768;28;20041;-79
2022/03/06 01:32:51;;;;;;;8.52;2.55;;;;;;;8.97;67.39;102014.09;4997416;28;20030;-79
2022/03/06 01:35:18;;;;;;;10.45;2.35;;;;;;;8.94;66.75;102017.13;5011597;28;20030;-79
2022/03/06 01:37:45;;;;;;;11.23;2.65;;;;;;;8.84;68.07;102017.28;4996775;28;20034;-80
2022/03/06 01:40:14;;;;;;;14.15;3.00;;;;;;;8.74;68.02;102016.59;5012268;28;20105;-79
2022/03/06 01:42:44;;;;;;;13.13;2.97;;;;;;;8.69;67.68;102018.94;4985578;28;20460;-78
2022/03/06 01:45:12;;;;;;;13.07;2.88;;;;;;;8.59;68.68;102015.56;4995916;28;20034;-78
2022/03/06 01:47:42;;;;;;;12.98;2.35;;;;;;;8.55;68.28;102017.75;4993242;28;20041;-78
2022/03/06 01:50:35;;;;;;;17.33;3.08;;;;;;;8.41;69.23;102013.03;4994854;28;20940;-78
2022/03/06 01:53:06;;;;;;;17.67;2.92;;;;;;;8.24;69.71;102005.94;4994467;28;20072;-78
2022/03/06 01:55:34;;;;;;;17.83;3.22;;;;;;;8.21;69.36;102007.09;4995233;28;20058;-78
2022/03/06 01:58:03;;;;;;;16.88;2.80;;;;;;;8.12;70.44;102005.41;4983520;28;20026;-78
2022/03/06 02:00:44;;;;;;;8.73;2.45;;;;;;;8.07;70.32;102003.22;5010244;28;20058;-78
2022/03/06 02:03:11;;;;;;;8.05;2.25;;;;;;;8.09;70.48;102008.41;4993729;28;20098;-78
2022/03/06 02:05:38;;;;;;;9.70;3.10;;;;;;;7.95;70.76;102012.53;4996171;28;20032;-78
2022/03/06 02:08:07;;;;;;;15.93;4.07;;;;;;;7.86;71.39;102014.28;5008487;28;20464;-78
2022/03/06 02:10:35;;;;;;;14.02;3.40;;;;;;;7.76;71.89;102010.06;5003122;28;20093;-78
2022/03/06 02:13:01;;;;;;;12.27;3.08;;;;;;;7.80;71.80;102014.09;4996316;28;20056;-78
2022/03/06 02:15:27;;;;;;;13.65;3.60;;;;;;;7.69;71.52;102007.22;5012555;28;20033;-79
2022/03/06 02:17:53;;;;;;;20.88;3.60;;;;;;;7.79;71.79;102007.09;4996609;28;20076;-79
2022/03/06 02:20:22;;;;;;;14.77;3.35;;;;;;;7.57;73.05;102014.66;5016713;28;20023;-79
2022/03/06 02:22:51;;;;;;;25.85;3.70;;;;;;;7.41;74.50;102019.88;5000655;28;20037;-79
2022/03/06 02:25:26;;;;;;;11.70;2.83;;;;;;;7.41;73.73;102025.19;5000602;28;20026;-78
2022/03/06 02:27:53;;;;;;;;;;;;;;;7.43;74.56;102028.53;5001114;28;20026;-79
2022/03/06 02:30:23;;;;;;;20.00;3.20;;;;;;;7.44;73.99;102026.69;5002787;28;19928;-78
2022/03/06 02:32:51;;;;;;;16.15;3.47;;;;;;;7.43;74.25;102023.19;5002860;28;20089;-78
2022/03/06 02:35:18;;;;;;;17.83;4.30;;;;;;;7.33;74.49;102027.81;4997409;28;20037;-78
2022/03/06 02:37:45;;;;;;;20.92;3.92;;;;;;;7.26;74.75;102027.59;4993898;28;20026;-78
2022/03/06 02:40:14;;;;;;;24.52;3.88;;;;;;;7.24;75.13;102023.41;5010213;28;20029;-78
2022/03/06 02:42:44;;;;;;;24.38;4.00;;;;;;;7.26;74.90;102030.25;5008310;28;20089;-78
2022/03/06 02:45:12;;;;;;;19.02;3.60;;;;;;;7.21;75.06;102026.38;4996563;28;20034;-78
2022/03/06 02:47:39;;;;;;;22.58;3.72;;;;;;;7.22;74.99;102025.38;4996186;28;20027;-78
2022/03/06 02:50:08;;;;;;;19.27;4.07;;;;;;;7.16;75.80;102026.84;4987991;28;20018;-78
2022/03/06 02:52:34;;;;;;;16.67;3.65;;;;;;;7.17;75.23;102038.34;5009890;28;20030;-78
2022/03/06 02:55:00;;;;;;;18.50;3.60;;;;;;;7.15;75.59;102046.47;4996866;28;20479;-78
2022/03/06 02:57:27;;;;;;;16.80;4.20;;;;;;;7.06;76.43;102050.06;4995140;28;20465;-78
2022/03/06 02:59:53;;;;;;;18.73;3.75;;;;;;;7.08;76.40;102058.72;4993024;28;20038;-78
2022/03/06 03:02:19;;;;;;;23.98;4.95;;;;;;;7.05;76.37;102061.69;4992511;28;20096;-78
2022/03/06 03:04:45;;;;;;;20.55;4.15;;;;;;;7.10;76.63;102056.75;5008679;28;20049;-78
2022/03/06 03:07:12;;;;;;;22.77;4.13;;;;;;;7.14;76.79;102061.59;4995278;28;20038;-78
2022/03/06 03:09:38;;;;;;;13.93;3.58;;;;;;;7.09;77.22;102066.56;5009182;28;20058;-78
2022/03/06 03:12:05;;;;;;;18.67;4.32;;;;;;;7.06;77.35;102069.53;5008638;28;20429;-78
2022/03/06 03:14:32;;;;;;;22.65;4.70;;;;;;;7.18;76.77;102071.97;4991850;28;20118;-79
2022/03/06 03:17:02;;;;;;;19.88;4.28;;;;;;;7.14;76.94;102069.59;4994006;28;20048;-76
2022/03/06 03:19:28;;;;;;;18.38;4.60;;;;;;;7.16;77.01;102072.09;5013981;28;20030;-76
2022/03/06 03:21:55;;;;;;;22.63;4.43;;;;;;;7.17;76.83;102072.97;5016753;28;20089;-76
2022/03/06 03:24:23;;;;;;;18.17;4.20;;;;;;;7.04;77.72;102076.00;5031311;28;20034;-76
2022/03/06 03:26:49;;;;;;;22.77;4.38;;;;;;;7.10;77.46;102078.03;5013654;28;20027;-76
2022/03/06 03:29:16;;;;;;;18.42;4.03;;;;;;;6.98;77.72;102076.59;5021065;28;20038;-76
2022/03/06 03:31:42;;;;;;;24.05;4.78;;;;;;;7.08;77.47;102078.19;5030528;28;20042;-76
2022/03/06 03:34:09;;;;;;;26.33;4.57;;;;;;;7.06;77.24;102077.53;5015555;28;20030;-76
2022/03/06 03:36:35;;;;;;;12.90;3.65;;;;;;;7.10;76.97;102081.53;5015887;28;20030;-77
2022/03/06 03:39:02;;;;;;;17.13;3.83;;;;;;;7.04;77.07;102082.16;5013907;28;20018;-76
2022/03/06 03:41:29;;;;;;;18.15;3.42;;;;;;;7.04;77.02;102078.66;5012375;28;20066;-76
2022/03/06 03:43:55;;;;;;;19.75;3.67;;;;;;;7.04;77.08;102078.66;5026735;28;20038;-77
2022/03/06 03:46:21;;;;;;;18.33;3.55;;;;;;;7.00;77.01;102077.31;5012725;28;20069;-77
2022/03/06 03:48:47;;;;;;;22.77;3.83;;;;;;;7.08;77.00;102078.19;5013716;28;20444;-76
2022/03/06 03:51:14;;;;;;;16.35;3.28;;;;;;;7.05;77.15;102075.84;5018001;28;20045;-76
2022/03/06 03:53:41;;;;;;;13.65;3.35;;;;;;;7.04;76.76;102071.50;5016297;28;20125;-76
2022/03/06 03:56:07;;;;;;;17.08;3.70;;;;;;;6.93;76.98;102079.72;5018769;28;20062;-77
2022/03/06 03:58:34;;;;;;;13.95;3.28;;;;;;;7.01;76.39;102076.31;5016411;28;20022;-76
2022/03/06 04:01:01;;;;;;;17.25;4.15;;;;;;;7.01;76.49;102071.00;5017978;28;20038;-77
2022/03/06 04:03:27;;;;;;;13.65;3.70;;;;;;;6.93;76.74;102074.38;5017344;28;20033;-76
2022/03/06 04:05:54;;;;;;;13.50;3.50;;;;;;;6.93;77.56;102066.41;5033385;28;20094;-76
2022/03/06 04:08:20;;;;;;;13.38;3.78;;;;;;;6.98;77.60;102074.78;5017069;28;20018;-76
2022/03/06 04:10:46;;;;;;;18.50;4.68;;;;;;;6.96;77.67;102074.09;5017736;28;20045;-76
2022/03/06 04:13:13;;;;;;;21.65;4.47;;;;;;;6.91;77.33;102076.38;5015392;28;20057;-77
2022/03/06 04:15:39;;;;;;;21.38;3.97;;;;;;;6.88;77.44;102084.66;5017418;28;20078;-76
2022/03/06 04:18:05;;;;;;;16.83;3.90;;;;;;;6.80;77.59;102090.75;5031520;28;20030;-76
2022/03/06 04:20:32;;;;;;;13.93;3.45;;;;;;;6.79;77.70;102091.72;5020996;28;20007;-77
2022/03/06 04:22:58;;;;;;;17.90;3.60;;;;;;;6.74;78.07;102098.50;5020348;28;20075;-77
2022/03/06 04:25:25;;;;;;;16.65;3.75;;;;;;;6.73;77.65;102091.50;5022413;28;20031;-77
2022/03/06 04:27:51;;;;;;;18.83;3.38;;;;;;;6.56;78.30;102093.16;5021110;28;20015;-76
2022/03/06 04:30:17;;;;;;;19.33;4.15;;;;;;;6.56;78.11;102095.81;5036819;28;20070;-76
2022/03/06 04:32:43;;;;;;;12.60;3.30;;;;;;;6.49;78.18;102098.19;5036789;28;20039;-76
2022/03/06 04:35:11;;;;;;;20.95;3.53;;;;;;;6.44;78.19;102099.63;5021389;28;20050;-76
2022/03/06 04:37:37;;;;;;;24.10;4.28;;;;;;;6.35;77.90;102099.53;5020257;28;20044;-76
2022/03/06 04:40:04;;;;;;;12.07;2.80;;;;;;;6.35;78.47;102096.06;5020428;28;20090;-76
2022/03/06 04:42:30;;;;;;;13.10;2.88;;;;;;;6.30;78.23;102103.63;5021739;28;20057;-76
2022/03/06 04:44:56;;;;;;;18.08;2.78;;;;;;;6.19;78.04;102102.00;5020670;28;20035;-76
2022/03/06 04:47:22;;;;;;;14.63;3.30;;;;;;;6.06;78.25;102102.34;5020885;28;20020;-76
2022/03/06 04:49:48;;;;;;;17.42;2.97;;;;;;;6.12;78.39;102100.91;5021015;28;20018;-76
2022/03/06 04:52:15;;;;;;;12.98;3.58;;;;;;;6.12;78.06;102100.09;5021109;28;20014;-76
2022/03/06 04:54:41;;;;;;;10.63;2.90;;;;;;;6.03;78.27;102110.59;5020573;28;20025;-76
2022/03/06 04:57:07;;;;;;;15.13;2.92;;;;;;;6.05;78.21;102118.41;5035918;28;20061;-76
2022/03/06 04:59:34;;;;;;;16.60;3.88;;;;;;;5.98;78.70;102112.84;5020679;28;20091;-76
2022/03/06 05:02:00;;;;;;;12.43;3.33;;;;;;;5.85;78.96;102112.28;5020524;28;20014;-76
2022/03/06 05:04:26;;;;;;;19.58;3.75;;;;;;;5.82;78.78;102116.06;5020153;28;20037;-76
2022/03/06 05:06:52;;;;;;;12.18;2.83;;;;;;;5.75;79.17;102117.63;5018439;28;20021;-77
2022/03/06 05:09:18;;;;;;;12.20;2.85;;;;;;;5.70;79.07;102117.22;5019563;28;20018;-76
2022/03/06 05:11:44;;;;;;;14.57;3.17;;;;;;;5.61;79.34;102128.72;5020072;28;20053;-76
2022/03/06 05:14:11;;;;;;;18.45;3.95;;;;;;;5.61;79.54;102133.16;5020114;28;20022;-76
2022/03/06 05:16:37;;;;;;;14.05;3.55;;;;;;;5.60;80.03;102136.81;5019775;28;20022;-77
2022/03/06 05:19:03;;;;;;;14.57;3.30;;;;;;;5.49;79.63;102130.66;5020103;28;20053;-76
2022/03/06 05:21:29;;;;;;;11.80;2.95;;;;;;;5.51;79.97;102134.03;5020446;28;20046;-76
2022/03/06 05:23:55;;;;;;;13.48;3.30;;;;;;;5.50;80.61;102132.34;5019219;28;20050;-76
2022/03/06 05:26:21;;;;;;;20.10;4.05;;;;;;;5.50;80.58;102132.34;5019205;28;20086;-76
2022/03/06 05:28:48;;;;;;;15.43;3.65;;;;;;;5.47;81.20;102132.63;5019402;28;20083;-77
2022/03/06 05:31:14;;;;;;;20.25;4.07;;;;;;;5.44;80.88;102132.06;5018833;28;20042;-77
2022/03/06 05:33:41;;;;;;;23.25;4.18;;;;;;;5.50;81.51;102131.53;4997860;28;20049;-73
2022/03/06 05:36:07;;;;;;;20.48;3.58;;;;;;;5.47;81.28;102140.59;4998137;28;20408;-73
2022/03/06 05:38:33;;;;;;;21.50;3.95;;;;;;;5.46;81.56;102136.25;4996769;28;20728;-73
2022/03/06 05:40:59;;;;;;;23.13;3.88;;;;;;;5.46;81.53;102132.78;4995464;28;20038;-73
2022/03/06 05:43:26;;;;;;;14.95;3.95;;;;;;;5.43;81.71;102144.50;5010743;28;20030;-74
2022/03/06 05:45:52;;;;;;;21.08;4.22;;;;;;;5.39;81.73;102132.50;5005087;28;20037;-74
2022/03/06 05:48:22;;;;;;;20.75;3.90;;;;;;;5.41;81.86;102135.84;4997030;28;20030;-73
2022/03/06 05:50:48;;;;;;;18.48;3.35;;;;;;;5.39;82.04;102135.16;4997584;28;20044;-74
2022/03/06 05:53:15;;;;;;;20.67;3.65;;;;;;;5.36;81.63;102142.56;5009353;28;20092;-73
2022/03/06 05:55:41;;;;;;;16.77;3.47;;;;;;;5.36;81.98;102143.38;4998020;28;20100;-73
2022/03/06 05:58:07;;;;;;;21.20;3.35;;;;;;;5.30;82.23;102144.78;5012174;28;20345;-73
2022/03/06 06:00:33;;;;;;;16.15;3.65;;;;;;;5.35;82.35;102148.84;4995773;28;20034;-73
2022/03/06 06:03:00;;;;;;;17.75;3.58;;;;;;;5.38;82.36;102143.25;5013657;28;20109;-73
2022/03/06 06:05:26;;;;;;;16.65;3.22;;;;;;;5.36;82.16;102139.91;4994943;28;20084;-74
2022/03/06 06:07:52;;;;;;;20.90;3.65;;;;;;;5.33;82.21;102145.47;4996991;28;20026;-74
2022/03/06 06:10:19;;;;;;;17.50;4.47;;;;;;;5.34;82.22;102147.19;4996813;28;20958;-74
2022/03/06 06:12:45;;;;;;;18.08;3.13;;;;;;;5.35;82.13;102149.69;4996984;28;20046;-73
2022/03/06 06:15:12;;;;;;;23.15;3.65;;;;;;;5.32;82.28;102149.94;5011861;28;20453;-74
2022/03/06 06:17:39;;;;;;;14.68;3.22;;;;;;;5.32;82.03;102149.94;4996204;28;20030;-73
2022/03/06 06:20:07;;;;;;;17.45;3.50;;;;;;;5.32;82.15;102149.94;4997505;28;20030;-73
2022/03/06 06:22:34;;;;;;;12.32;2.70;;;;;;;5.27;81.96;102145.09;4994587;28;20061;-74
2022/03/06 06:25:01;;;;;;;18.67;3.60;;;;;;;5.32;81.92;102155.25;4995911;28;20022;-73
2022/03/06 06:27:27;;;;;;;14.80;3.33;;;;;;;5.28;81.69;102148.56;4993615;28;20034;-74
2022/03/06 06:29:54;;;;;;;22.35;3.67;;;;;;;5.26;81.99;102153.16;4996063;28;20034;-74
2022/03/06 06:32:20;;;;;;;14.85;2.95;;;;;;;5.24;81.88;102142.69;4995430;28;20042;-73
2022/03/06 06:34:47;;;;;;;17.20;3.88;;;;;;;5.25;82.08;102143.53;5010422;28;20030;-73
2022/03/06 06:37:14;;;;;;;14.43;2.97;;;;;;;5.22;81.99;102154.44;5009584;28;20029;-74
2022/03/06 06:39:41;;;;;;;20.42;3.55;;;;;;;5.21;82.21;102148.25;4994087;28;20030;-74
2022/03/06 06:42:08;;;;;;;10.70;2.70;;;;;;;5.12;82.52;102148.28;5010108;28;20447;-73
2022/03/06 06:44:34;;;;;;;16.08;3.70;;;;;;;5.14;82.34;102156.94;4995016;28;20034;-73
2022/03/06 06:47:02;;;;;;;13.77;3.22;;;;;;;5.13;82.40;102149.94;5010878;28;20349;-73
2022/03/06 06:49:28;;;;;;;18.35;3.47;;;;;;;5.11;82.36;102151.88;5001036;28;20141;-73
2022/03/06 06:51:54;;;;;;;17.23;4.00;;;;;;;5.10;83.12;102151.06;5011089;28;20038;-73
2022/03/06 06:54:20;;;;;;;16.40;3.25;;;;;;;5.18;83.22;102150.38;4994093;28;20076;-74
2022/03/06 06:56:47;;;;;;;12.52;3.20;;;;;;;5.23;83.09;102145.50;5009943;28;20026;-74
2022/03/06 06:59:13;;;;;;;21.05;3.85;;;;;;;5.21;83.10;102148.25;5010886;28;20596;-73
2022/03/06 07:01:41;;;;;;;16.25;3.53;;;;;;;5.33;83.32;102154.31;4994109;28;20030;-73
2022/03/06 07:04:07;;;;;;;22.83;3.85;;;;;;;5.24;83.11;102152.47;4993810;28;20035;-73
2022/03/06 07:06:34;;;;;;;15.90;2.78;;;;;;;5.26;83.09;102148.69;4995020;28;20033;-73
2022/03/06 07:09:00;;;;;;;13.38;3.47;;;;;;;5.24;83.05;102142.69;4993612;28;20633;-73
2022/03/06 07:11:26;;;;;;;18.80;3.67;;;;;;;5.27;83.04;102142.44;4992996;28;20121;-73
2022/03/06 07:13:52;;;;;;;16.25;3.33;;;;;;;5.24;83.10;102149.81;4992556;28;20030;-73
2022/03/06 07:16:19;;;;;;;21.50;3.80;;;;;;;5.20;83.57;102151.91;4993987;28;20034;-73
2022/03/06 07:18:45;;;;;;;13.05;4.22;;;;;;;5.09;84.11;102140.59;4993467;28;20080;-73
2022/03/06 07:21:11;;;;;;;16.38;3.30;;;;;;;5.22;83.99;102147.31;4991972;28;20034;-73
2022/03/06 07:23:37;;;;;;;17.73;4.40;;;;;;;5.22;83.72;102143.81;4993594;28;20030;-73
2022/03/06 07:26:04;;;;;;;17.52;3.13;;;;;;;5.31;83.31;102150.94;4993435;28;20034;-73
2022/03/06 07:28:30;;;;;;;18.27;2.97;;;;;;;5.28;83.18;102141.44;4993606;28;20480;-73
2022/03/06 07:30:57;;;;;;;17.48;4.10;;;;;;;5.31;82.79;102137.66;4991433;28;20057;-73
2022/03/06 07:33:23;;;;;;;17.83;2.95;;;;;;;5.26;82.66;102142.53;4993911;28;20088;-73
2022/03/06 07:35:49;;;;;;;14.73;2.90;;;;;;;5.31;82.68;102137.66;4991866;28;20105;-72
2022/03/06 07:38:15;;;;;;;18.85;3.50;;;;;;;5.30;82.78;102134.16;5004222;28;20121;-73
2022/03/06 07:40:41;;;;;;;14.18;2.75;;;;;;;5.37;82.87;102130.94;4993711;28;20109;-74
2022/03/06 07:43:08;;;;;;;13.55;2.67;;;;;;;5.41;82.40;102129.69;4995503;28;20504;-73
2022/03/06 07:45:34;;;;;;;16.70;3.00;;;;;;;5.43;82.28;102133.88;4989073;28;20044;-73
2022/03/06 07:48:00;;;;;;;14.48;3.30;;;;;;;5.41;82.15;102132.34;4993765;28;20025;-73
2022/03/06 07:50:26;;;;;;;13.52;3.20;;;;;;;5.38;81.53;102130.81;4992211;28;21228;-73
2022/03/06 07:52:56;;;;;;;18.40;3.30;;;;;;;5.34;81.63;102128.59;4991933;28;20376;-73
2022/03/06 07:55:22;;;;;;;13.73;2.95;;;;;;;5.29;81.82;102132.50;4996564;28;20045;-73
2022/03/06 07:57:48;;;;;;;12.38;2.63;;;;;;;5.16;81.65;102133.72;4997392;28;20030;-73
2022/03/06 08:00:15;;;;;;;11.57;3.15;;;;;;;5.22;81.71;102144.66;4991021;28;20471;-73
2022/03/06 08:02:41;;;;;;;13.80;2.70;;;;;;;5.22;81.42;102144.66;4994947;28;20038;-73
2022/03/06 08:05:09;;;;;;;16.10;3.15;;;;;;;5.26;82.03;102143.38;4995910;28;20061;-73
2022/03/06 08:07:35;;;;;;;10.95;2.85;;;;;;;5.26;83.00;102147.84;4995632;28;20096;-73
2022/03/06 08:10:04;;;;;;;10.23;3.22;;;;;;;5.23;83.99;102146.34;4996303;28;20480;-73
2022/03/06 08:12:30;;;;;;;18.48;3.10;;;;;;;5.21;84.37;102156.22;4998139;28;20034;-73
2022/03/06 08:14:56;;;;;;;16.08;3.70;;;;;;;5.24;83.89;102153.31;5012853;28;20026;-73
2022/03/06 08:17:43;;;;;;;15.45;3.50;;;;;;;5.23;83.55;102159.59;4998210;28;20384;-73
2022/03/06 08:20:10;;;;;;;20.17;4.13;;;;;;;5.27;83.19;102165.44;4956937;28;20043;-73
2022/03/06 08:22:36;;;;;;;12.07;3.60;;;;;;;5.30;82.66;102165.19;4957527;28;20097;-73
2022/03/06 08:25:04;;;;;;;15.98;3.22;;;;;;;5.28;82.24;102170.66;4958471;28;20031;-73
2022/03/06 08:27:32;;;;;;;17.27;3.70;;;;;;;5.16;82.81;102165.59;4958567;28;20094;-73
2022/03/06 08:30:01;;;;;;;9.05;2.72;;;;;;;5.20;82.30;102167.84;4956216;28;20035;-73
2022/03/06 08:32:27;;;;;;;17.35;3.42;;;;;;;5.03;82.05;102173.81;4947902;28;20163;-73
2022/03/06 08:34:54;;;;;;;17.83;3.80;;;;;;;5.12;81.98;102173.00;4958123;28;20035;-73
2022/03/06 08:37:21;;;;;;;12.07;2.92;;;;;;;5.08;81.98;102174.25;4957451;28;20034;-73
2022/03/06 08:39:48;;;;;;;17.77;3.58;;;;;;;5.07;81.45;102182.34;4957502;28;20027;-73
2022/03/06 08:42:15;;;;;;;17.73;3.90;;;;;;;5.01;81.84;102184.56;4956321;28;20177;-73
2022/03/06 08:44:42;;;;;;;23.48;3.63;;;;;;;5.00;81.70;102190.03;4954877;28;20043;-73
2022/03/06 08:47:09;;;;;;;17.60;3.38;;;;;;;4.94;82.09;102191.41;4957481;28;20027;-73
2022/03/06 08:49:35;;;;;;;19.67;3.88;;;;;;;4.93;81.83;102202.97;4955994;28;20046;-72
2022/03/06 08:52:01;;;;;;;12.70;2.70;;;;;;;4.84;82.08;102197.66;4957752;28;20050;-73
2022/03/06 08:54:27;;;;;;;16.13;2.83;;;;;;;4.80;82.31;102197.09;4956992;28;20098;-73
2022/03/06 08:56:54;;;;;;;13.90;3.00;;;;;;;4.81;82.41;102196.09;4973259;28;20081;-73
2022/03/06 08:59:20;;;;;;;11.93;2.97;;;;;;;4.78;82.12;102198.22;5009253;28;20044;-77
2022/03/06 09:01:47;;;;;;;13.65;3.05;;;;;;;4.75;82.12;102194.84;5014734;28;20027;-75
2022/03/06 09:04:14;;;;;;;10.80;2.50;;;;;;;4.71;82.00;102198.72;5007013;28;20031;-76
2022/03/06 09:06:41;;;;;;;21.35;3.78;;;;;;;4.64;82.36;102189.63;5016983;28;20010;-76
2022/03/06 09:09:08;;;;;;;15.10;3.72;;;;;;;4.69;82.45;102191.88;5008533;28;20042;-72
2022/03/06 09:11:34;;;;;;;20.20;3.47;;;;;;;4.58;82.30;102186.69;4995360;28;20092;-73
2022/03/06 09:14:01;;;;;;;16.65;3.97;;;;;;;4.54;82.61;102186.09;4995690;28;20034;-73
2022/03/06 09:16:27;;;;;;;20.30;3.22;;;;;;;4.58;82.65;102181.38;4998490;28;20030;-73
2022/03/06 09:18:53;;;;;;;18.75;4.10;;;;;;;4.50;83.00;102185.53;4995505;28;20987;-72
2022/03/06 09:21:19;;;;;;;13.90;3.35;;;;;;;4.58;83.52;102184.88;4995663;28;20022;-72
2022/03/06 09:23:46;;;;;;;16.73;3.65;;;;;;;4.58;83.51;102186.69;5011781;28;20354;-75
2022/03/06 09:26:12;;;;;;;14.02;3.17;;;;;;;4.61;83.59;102195.22;4997043;28;20415;-75
2022/03/06 09:28:38;;;;;;;15.45;3.67;;;;;;;4.61;83.44;102194.34;4997193;28;20110;-75
2022/03/06 09:31:04;;;;;;;17.27;3.67;;;;;;;4.56;83.29;102204.53;4994735;28;20049;-75
2022/03/06 09:33:30;;;;;;;17.58;3.63;;;;;;;4.59;83.84;102204.25;4996935;28;20102;-74
2022/03/06 09:35:57;;;;;;;13.07;3.42;;;;;;;4.56;83.80;102209.84;4996610;28;20038;-75
2022/03/06 09:38:23;;;;;;;21.65;3.63;;;;;;;4.56;84.07;102202.72;4993457;28;20096;-75
2022/03/06 09:40:52;;;;;;;23.63;4.22;;;;;;;4.57;83.79;102207.06;4993462;28;20034;-75
2022/03/06 09:43:18;;;;;;;15.93;4.25;;;;;;;4.50;83.56;102201.44;5010381;28;20092;-72
2022/03/06 09:45:47;;;;;;;14.90;3.50;;;;;;;4.54;83.65;102202.00;4993927;28;20553;-73
2022/03/06 09:48:17;;;;;;;22.17;4.20;;;;;;;4.57;83.52;102200.91;4994093;28;20042;-72
2022/03/06 09:50:44;;;;;;;20.10;4.10;;;;;;;4.58;83.25;102199.94;4994283;28;20026;-72
2022/03/06 09:53:10;;;;;;;14.98;3.35;;;;;;;4.53;83.51;102202.97;4993558;28;20435;-72
2022/03/06 09:55:37;;;;;;;15.63;3.25;;;;;;;4.47;83.39;102200.88;4994097;28;20100;-72
2022/03/06 09:58:03;;;;;;;20.63;3.22;;;;;;;4.47;83.45;102206.16;4993724;28;20460;-72
2022/03/06 10:00:29;;;;;;;12.45;3.75;;;;;;;4.43;83.13;102202.94;4992878;28;20026;-72
2022/03/06 10:02:58;;;;;;;11.90;3.13;;;;;;;4.42;82.81;102203.91;4993080;28;20069;-75
2022/03/06 10:05:29;;;;;;;15.55;3.05;;;;;;;4.37;82.66;102211.41;4994454;28;20038;-75
2022/03/06 10:08:15;;;;;;;19.38;3.60;;;;;;;4.30;82.70;102210.28;4994455;28;20114;-75
2022/03/06 10:10:41;;;;;;;15.05;3.25;;;;;;;4.29;82.64;102207.75;4993655;28;20384;-74
2022/03/06 10:13:08;;;;;;;14.07;3.22;;;;;;;4.21;82.54;102203.09;4997646;28;20129;-76
2022/03/06 10:15:58;;;;;;;15.55;3.60;;;;;;;4.14;82.53;102207.25;4997660;28;20057;-76
2022/03/06 10:18:24;;;;;;;14.68;4.00;;;;;;;4.13;82.91;102205.56;5009092;28;20034;-75
2022/03/06 10:20:50;;;;;;;16.38;4.03;;;;;;;4.10;82.76;102205.81;4996294;28;20473;-75
2022/03/06 10:23:27;;;;;;;14.77;3.42;;;;;;;4.08;82.75;102200.66;4995385;28;20026;-72
2022/03/06 10:26:26;;;;;;;20.40;3.85;;;;;;;4.03;83.04;102202.84;4993785;28;20113;-72
2022/03/06 10:29:04;;;;;;;13.77;3.95;;;;;;;4.01;83.09;102206.63;4952983;28;20054;-72
2022/03/06 10:31:33;;;;;;;12.43;3.03;;;;;;;4.02;83.11;102205.66;4952702;28;20130;-72
2022/03/06 10:34:12;;;;;;;18.50;3.85;;;;;;;3.96;83.23;102204.34;4937467;28;20027;-72
2022/03/06 10:36:46;;;;;;;18.27;3.17;;;;;;;4.02;83.31;102200.34;4953273;28;20204;-72
2022/03/06 10:39:20;;;;;;;13.50;3.53;;;;;;;3.96;83.44;102207.84;4952742;28;20070;-72
2022/03/06 10:41:51;;;;;;;20.38;3.67;;;;;;;3.98;83.68;102205.06;4952971;28;20118;-72
2022/03/06 10:44:19;;;;;;;18.17;3.10;;;;;;;3.95;83.85;102207.97;4952042;28;20470;-71
2022/03/06 10:47:05;;;;;;;17.75;3.63;;;;;;;3.96;84.11;102210.50;4944620;29;20030;-72
2022/03/06 10:49:33;;;;;;;14.82;3.28;;;;;;;4.00;84.23;102197.84;4953133;28;20102;-72
2022/03/06 10:52:20;;;;;;;14.30;3.45;;;;;;;3.95;83.72;102200.88;4952558;28;20039;-72
2022/03/06 10:54:57;;;;;;;18.33;3.67;;;;;;;3.97;84.15;102188.31;4936500;29;20027;-71
2022/03/06 10:57:25;;;;;;;21.90;4.22;;;;;;;4.02;84.46;102192.41;4935568;29;20126;-72
2022/03/06 10:59:52;;;;;;;23.08;4.20;;;;;;;4.02;84.53;102189.75;4952759;28;20100;-72
2022/03/06 11:02:20;;;;;;;18.73;3.53;;;;;;;4.10;84.63;102192.56;4953354;28;20137;-72
2022/03/06 11:04:47;;;;;;;20.05;3.78;;;;;;;4.09;84.45;102193.53;4978103;28;20105;-72
2022/03/06 11:07:13;;;;;;;22.92;5.20;;;;;;;4.05;84.49;102192.97;4992424;28;20436;-72
2022/03/06 11:09:40;;;;;;;20.05;3.97;;;;;;;4.10;84.71;102197.88;4989911;28;20038;-72
2022/03/06 11:12:07;;;;;;;26.27;5.03;;;;;;;4.09;84.34;102196.19;4992862;28;20022;-72
2022/03/06 11:14:35;;;;;;;22.02;4.68;;;;;;;4.12;84.69;102193.31;4991717;28;20360;-72
2022/03/06 11:17:01;;;;;;;22.77;4.85;;;;;;;4.11;84.55;102194.25;4992087;28;20034;-72
2022/03/06 11:19:28;;;;;;;19.65;4.25;;;;;;;4.14;84.56;102207.25;4991989;28;20080;-72
2022/03/06 11:22:31;;;;;;;17.67;4.45;;;;;;;4.10;84.15;102200.53;4992425;28;20030;-72
2022/03/06 11:25:17;;;;;;;22.75;4.45;;;;;;;4.09;84.14;102206.81;5007870;28;20030;-71
2022/03/06 11:27:52;;;;;;;;;;;;;;;4.07;84.42;102208.75;4993315;28;20022;-71
2022/03/06 11:30:22;;;;;;;18.70;3.50;;;;;;;4.10;84.49;102211.97;4992013;28;19925;-71